createdAt,value
2022-11-11T00:01:12.715Z,8.98
2022-11-11T00:03:40.324Z,9.00
2022-11-11T00:06:09.860Z,9.73
2022-11-11T00:08:37.735Z,9.75
2022-11-11T00:11:07.842Z,12.13
2022-11-11T00:13:35.970Z,9.10
2022-11-11T00:16:07.132Z,11.50
2022-11-11T00:18:52.536Z,10.50
2022-11-11T00:21:37.433Z,10.93
2022-11-11T00:24:22.923Z,10.00
2022-11-11T00:26:51.858Z,8.23
2022-11-11T00:29:21.114Z,8.27
2022-11-11T00:32:06.317Z,7.20
2022-11-11T00:34:33.933Z,7.40
2022-11-11T00:37:00.498Z,6.90
2022-11-11T00:39:28.268Z,7.37
2022-11-11T00:41:57.186Z,6.67
2022-11-11T00:44:26.024Z,7.60
2022-11-11T00:47:10.890Z,8.00
2022-11-11T00:49:56.260Z,8.70
2022-11-11T00:52:23.955Z,6.80
2022-11-11T00:54:51.629Z,6.00
2022-11-11T00:57:20.536Z,7.50
2022-11-11T00:59:48.071Z,7.87
2022-11-11T01:02:15.660Z,7.83
2022-11-11T01:04:43.371Z,7.93
2022-11-11T01:07:11.130Z,6.97
2022-11-11T01:09:38.760Z,8.13
2022-11-11T01:12:06.471Z,10.53
2022-11-11T01:14:35.542Z,8.87
2022-11-11T01:17:04.985Z,11.07
2022-11-11T01:19:32.646Z,9.27
2022-11-11T01:22:00.497Z,10.20
2022-11-11T01:24:28.165Z,7.90
2022-11-11T01:26:56.028Z,7.90
2022-11-11T01:29:23.943Z,7.43
2022-11-11T01:31:52.946Z,7.40
2022-11-11T01:34:20.723Z,6.77
2022-11-11T01:36:48.475Z,7.70
2022-11-11T01:39:16.320Z,7.60
2022-11-11T01:41:43.992Z,7.70
2022-11-11T01:44:19.998Z,8.07
2022-11-11T01:46:49.977Z,8.67
2022-11-11T01:49:23.365Z,9.20
2022-11-11T01:51:54.435Z,8.50
2022-11-11T01:54:24.331Z,8.30
2022-11-11T01:56:52.798Z,8.37
2022-11-11T01:59:20.831Z,7.07
2022-11-11T02:01:49.290Z,7.77
2022-11-11T02:04:34.923Z,7.70
2022-11-11T02:07:05.524Z,8.23
2022-11-11T02:09:33.508Z,8.10
2022-11-11T02:12:21.240Z,8.57
2022-11-11T02:14:52.692Z,10.20
2022-11-11T02:17:20.454Z,8.97
2022-11-11T02:19:50.729Z,10.20
2022-11-11T02:22:23.574Z,9.17
2022-11-11T02:24:53.891Z,9.37
2022-11-11T02:27:22.664Z,8.60
2022-11-11T02:29:51.516Z,8.37
2022-11-11T02:32:19.091Z,10.07
2022-11-11T02:34:46.992Z,9.80
2022-11-11T02:37:21.142Z,8.18
2022-11-11T02:40:03.752Z,8.80
2022-11-11T02:42:35.517Z,8.23
2022-11-11T02:45:03.234Z,8.43
2022-11-11T02:47:31.146Z,8.23
2022-11-11T02:49:58.918Z,8.20
2022-11-11T02:52:26.601Z,7.57
2022-11-11T02:54:54.353Z,8.30
2022-11-11T02:57:22.707Z,8.25
2022-11-11T02:59:52.104Z,9.30
2022-11-11T03:02:19.983Z,8.20
2022-11-11T03:04:48.018Z,10.07
2022-11-11T03:07:15.825Z,9.17
2022-11-11T03:09:43.752Z,8.53
2022-11-11T03:12:13.986Z,9.27
2022-11-11T03:14:41.675Z,9.20
2022-11-11T03:17:28.602Z,8.70
2022-11-11T03:20:16.388Z,9.50
2022-11-11T03:22:58.437Z,9.13
2022-11-11T03:25:41.142Z,7.87
2022-11-11T03:28:09.551Z,8.23
2022-11-11T03:30:37.652Z,7.30
2022-11-11T03:33:06.760Z,7.00
2022-11-11T03:35:34.828Z,7.57
2022-11-11T03:38:25.813Z,7.57
2022-11-11T03:40:55.136Z,7.90
2022-11-11T03:43:23.817Z,8.43
2022-11-11T03:45:51.793Z,8.00
2022-11-11T03:48:22.681Z,8.77
2022-11-11T03:50:50.669Z,9.03
2022-11-11T03:53:20.130Z,8.48
2022-11-11T03:55:48.401Z,8.43
2022-11-11T03:58:16.023Z,8.80
2022-11-11T04:00:43.928Z,8.70
2022-11-11T04:03:30.075Z,8.53
2022-11-11T04:06:17.254Z,9.33
2022-11-11T04:09:02.133Z,8.67
2022-11-11T04:11:30.764Z,8.50
2022-11-11T04:14:17.833Z,9.10
2022-11-11T04:16:45.355Z,8.53
2022-11-11T04:19:29.317Z,9.70
2022-11-11T04:21:58.366Z,8.97
2022-11-11T04:24:43.354Z,9.07
2022-11-11T04:27:11.651Z,9.33
2022-11-11T04:29:38.461Z,8.03
2022-11-11T04:32:24.444Z,9.43
2022-11-11T04:34:53.007Z,8.50
2022-11-11T04:37:22.540Z,8.00
2022-11-11T04:40:08.071Z,7.17
2022-11-11T04:42:35.914Z,6.93
2022-11-11T04:45:21.069Z,6.43
2022-11-11T04:51:07.520Z,6.73
2022-11-11T04:53:37.399Z,7.27
2022-11-11T04:56:22.690Z,8.20
2022-11-11T04:59:10.262Z,7.60
2022-11-11T05:01:54.983Z,7.67
2022-11-11T05:07:20.360Z,8.03
2022-11-11T05:09:49.314Z,8.23
2022-11-11T05:12:16.877Z,8.77
2022-11-11T05:15:02.342Z,8.23
2022-11-11T05:17:47.440Z,7.93
2022-11-11T05:20:37.575Z,8.33
2022-11-11T05:23:06.662Z,8.23
2022-11-11T05:25:35.176Z,7.87
2022-11-11T05:28:02.803Z,7.93
2022-11-11T05:30:30.354Z,8.37
2022-11-11T05:32:58.192Z,8.43
2022-11-11T05:35:25.856Z,8.67
2022-11-11T05:38:07.348Z,9.00
2022-11-11T05:40:36.193Z,9.17
2022-11-11T05:43:03.720Z,9.93
2022-11-11T05:45:31.332Z,9.90
2022-11-11T05:48:02.400Z,10.50
2022-11-11T05:50:31.319Z,8.80
2022-11-11T05:52:58.951Z,9.20
2022-11-11T05:55:26.437Z,9.27
2022-11-11T05:57:55.309Z,9.63
2022-11-11T06:00:22.928Z,8.37
2022-11-11T06:02:50.370Z,8.73
2022-11-11T06:05:17.847Z,9.30
2022-11-11T06:07:45.456Z,9.97
2022-11-11T06:10:30.357Z,10.17
2022-11-11T06:13:07.648Z,9.43
2022-11-11T06:15:35.759Z,9.33
2022-11-11T06:18:03.255Z,9.33
2022-11-11T06:20:30.739Z,9.73
2022-11-11T06:22:58.373Z,9.73
2022-11-11T06:25:43.753Z,9.47
2022-11-11T06:28:12.962Z,9.40
2022-11-11T06:30:50.225Z,9.60
2022-11-11T06:33:18.404Z,9.97
2022-11-11T06:35:46.220Z,9.20
2022-11-11T06:38:14.230Z,8.73
2022-11-11T06:40:43.189Z,9.60
2022-11-11T06:43:12.183Z,9.27
2022-11-11T06:45:39.772Z,9.60
2022-11-11T06:48:07.674Z,9.37
2022-11-11T06:50:36.054Z,9.67
2022-11-11T06:53:07.005Z,11.47
2022-11-11T06:55:34.673Z,13.80
2022-11-11T06:58:05.717Z,10.60
2022-11-11T07:00:34.744Z,11.37
2022-11-11T07:03:02.550Z,11.57
2022-11-11T07:05:30.169Z,13.73
2022-11-11T07:07:59.995Z,10.70
2022-11-11T07:10:27.485Z,10.20
2022-11-11T07:12:54.953Z,11.50
2022-11-11T07:15:22.516Z,10.17
2022-11-11T07:17:51.356Z,12.73
2022-11-11T07:20:18.833Z,10.13
2022-11-11T07:22:46.291Z,10.00
2022-11-11T07:25:13.838Z,9.82
2022-11-11T07:27:41.837Z,11.43
2022-11-11T07:30:10.295Z,10.40
2022-11-11T07:32:38.223Z,10.50
2022-11-11T07:35:07.472Z,10.33
2022-11-11T07:37:37.215Z,11.20
2022-11-11T07:40:05.205Z,10.50
2022-11-11T07:42:32.745Z,11.33
2022-11-11T07:45:00.271Z,10.53
2022-11-11T07:47:27.841Z,10.53
2022-11-11T07:49:55.368Z,10.13
2022-11-11T07:52:24.796Z,10.57
2022-11-11T07:54:52.286Z,10.07
2022-11-11T07:57:19.846Z,9.30
2022-11-11T07:59:47.455Z,9.25
2022-11-11T08:02:15.530Z,8.80
2022-11-11T08:04:43.146Z,9.13
2022-11-11T08:07:10.996Z,9.70
2022-11-11T08:09:40.039Z,9.23
2022-11-11T08:12:24.982Z,8.80
2022-11-11T08:14:52.533Z,8.48
2022-11-11T08:17:20.081Z,9.60
2022-11-11T08:19:47.761Z,9.17
2022-11-11T08:22:15.258Z,8.02
2022-11-11T08:25:02.880Z,8.10
2022-11-11T08:27:31.704Z,7.93
2022-11-11T08:29:59.266Z,7.28
2022-11-11T08:32:26.796Z,7.80
2022-11-11T08:34:54.274Z,7.75
2022-11-11T08:37:21.792Z,7.63
2022-11-11T08:39:52.382Z,8.45
2022-11-11T08:42:19.879Z,7.05
2022-11-11T08:44:47.452Z,7.90
2022-11-11T08:47:15.130Z,6.95
2022-11-11T08:49:43.367Z,7.97
2022-11-11T08:52:10.998Z,7.60
2022-11-11T08:54:38.474Z,7.43
2022-11-11T08:57:07.364Z,7.93
2022-11-11T08:59:34.884Z,7.32
2022-11-11T09:02:02.388Z,7.75
2022-11-11T09:04:47.573Z,7.78
2022-11-11T09:07:16.999Z,8.15
2022-11-11T09:09:44.518Z,8.65
2022-11-11T09:12:13.426Z,7.72
2022-11-11T09:14:40.931Z,8.30
2022-11-11T09:17:09.031Z,7.18
2022-11-11T09:19:36.801Z,7.35
2022-11-11T09:22:04.492Z,9.55
2022-11-11T09:24:32.108Z,7.32
2022-11-11T09:26:59.761Z,7.32
2022-11-11T09:29:28.816Z,6.53
2022-11-11T09:31:56.320Z,7.18
2022-11-11T09:34:23.842Z,7.00
2022-11-11T09:36:51.416Z,7.03
2022-11-11T09:39:18.914Z,7.82
2022-11-11T09:41:55.914Z,8.07
2022-11-11T09:44:33.419Z,6.35
2022-11-11T09:47:05.682Z,6.47
2022-11-11T09:49:39.828Z,5.78
2022-11-11T09:52:13.577Z,5.88
2022-11-11T09:54:42.607Z,5.93
2022-11-11T09:57:15.525Z,5.90
2022-11-11T09:59:46.927Z,5.72
2022-11-11T10:02:18.684Z,6.38
2022-11-11T10:04:50.641Z,5.97
2022-11-11T10:07:25.511Z,5.85
2022-11-11T10:09:57.558Z,6.00
2022-11-11T10:12:28.985Z,6.20
2022-11-11T10:15:01.225Z,6.30
2022-11-11T10:17:34.213Z,5.95
2022-11-11T10:20:06.192Z,6.13
2022-11-11T10:22:35.578Z,5.88
2022-11-11T10:25:07.751Z,5.68
2022-11-11T10:27:35.416Z,5.55
2022-11-11T10:30:08.859Z,5.30
2022-11-11T10:32:37.222Z,6.00
2022-11-11T10:35:13.629Z,4.88
2022-11-11T10:37:42.205Z,5.35
2022-11-11T10:40:14.751Z,5.30
2022-11-11T10:42:43.947Z,5.47
2022-11-11T10:45:18.099Z,5.43
2022-11-11T10:47:49.211Z,5.13
2022-11-11T10:50:19.853Z,5.65
2022-11-11T10:52:49.452Z,5.78
2022-11-11T10:55:19.766Z,5.85
2022-11-11T10:57:49.417Z,5.40
2022-11-11T11:00:18.700Z,5.15
2022-11-11T11:02:50.242Z,5.03
2022-11-11T11:05:20.880Z,5.03
2022-11-11T11:07:50.936Z,5.30
2022-11-11T11:10:20.141Z,5.72
2022-11-11T11:12:52.036Z,5.80
2022-11-11T11:15:22.773Z,4.85
2022-11-11T11:17:54.790Z,4.90
2022-11-11T11:20:22.681Z,5.40
2022-11-11T11:22:51.769Z,4.82
2022-11-11T11:25:20.144Z,4.88
2022-11-11T11:27:48.061Z,4.70
2022-11-11T11:30:17.303Z,4.20
2022-11-11T11:32:59.679Z,4.80
2022-11-11T11:35:31.070Z,4.38
2022-11-11T11:37:58.572Z,4.22
2022-11-11T11:40:26.171Z,4.18
2022-11-11T11:42:53.647Z,4.50
2022-11-11T11:45:22.630Z,4.00
2022-11-11T11:48:29.384Z,4.13
2022-11-11T11:50:51.090Z,3.80
2022-11-11T11:53:37.028Z,4.40
2022-11-11T11:56:08.660Z,4.25
2022-11-11T11:58:42.852Z,3.92
2022-11-11T12:01:12.623Z,3.60
2022-11-11T12:03:55.257Z,3.70
2022-11-11T12:06:27.975Z,4.70
2022-11-11T12:09:02.621Z,3.75
2022-11-11T12:11:34.063Z,3.80
2022-11-11T12:14:16.451Z,4.65
2022-11-11T12:16:46.374Z,4.55
2022-11-11T12:19:23.621Z,4.90
2022-11-11T12:21:59.650Z,4.18
2022-11-11T12:24:36.831Z,3.70
2022-11-11T12:27:10.427Z,3.90
2022-11-11T12:29:44.367Z,3.30
2022-11-11T12:32:23.640Z,3.47
2022-11-11T12:35:02.860Z,3.95
2022-11-11T12:37:36.564Z,3.40
2022-11-11T12:40:14.159Z,3.20
2022-11-11T12:42:47.286Z,4.60
2022-11-11T12:45:18.408Z,3.40
2022-11-11T12:47:49.886Z,3.45
2022-11-11T12:50:22.205Z,3.53
2022-11-11T12:52:58.165Z,3.65
2022-11-11T12:55:31.679Z,3.67
2022-11-11T12:58:16.467Z,3.58
2022-11-11T13:00:52.355Z,3.80
2022-11-11T13:03:28.058Z,3.53
2022-11-11T13:06:00.352Z,3.70
2022-11-11T13:08:39.258Z,3.67
2022-11-11T13:11:13.256Z,3.83
2022-11-11T13:13:47.134Z,3.42
2022-11-11T13:16:23.997Z,3.25
2022-11-11T13:18:57.074Z,3.28
2022-11-11T13:21:27.599Z,3.55
2022-11-11T13:23:56.686Z,3.05
2022-11-11T13:26:27.601Z,3.17
2022-11-11T13:29:00.838Z,3.72
2022-11-11T13:31:32.717Z,3.50
2022-11-11T13:34:04.800Z,3.97
2022-11-11T13:36:40.172Z,4.00
2022-11-11T13:39:20.444Z,4.28
2022-11-11T13:41:50.242Z,3.65
2022-11-11T13:44:21.155Z,3.58
2022-11-11T13:46:50.336Z,3.45
2022-11-11T13:49:23.530Z,3.92
2022-11-11T13:51:58.741Z,3.72
2022-11-11T13:54:29.842Z,3.50
2022-11-11T13:57:02.796Z,3.40
2022-11-11T13:59:32.297Z,3.53
2022-11-11T14:02:18.243Z,3.65
2022-11-11T14:05:06.669Z,3.15
2022-11-11T14:07:48.711Z,3.83
2022-11-11T14:10:32.293Z,3.80
2022-11-11T14:13:26.430Z,3.83
2022-11-11T14:15:54.744Z,3.92
2022-11-11T14:18:38.705Z,3.63
2022-11-11T14:21:06.596Z,3.70
2022-11-11T14:23:35.767Z,3.70
2022-11-11T14:26:22.187Z,3.80
2022-11-11T14:28:58.241Z,3.40
2022-11-11T14:31:32.572Z,3.85
2022-11-11T14:34:02.840Z,3.53
2022-11-11T14:36:34.715Z,3.67
2022-11-11T14:39:07.721Z,4.07
2022-11-11T14:41:49.284Z,3.75
2022-11-11T14:44:35.549Z,3.35
2022-11-11T14:47:36.004Z,3.17
2022-11-11T14:50:05.239Z,3.80
2022-11-11T14:52:35.526Z,3.72
2022-11-11T14:55:07.804Z,4.30
2022-11-11T14:57:36.456Z,5.43
2022-11-11T15:00:06.044Z,6.07
2022-11-11T15:02:35.499Z,5.72
2022-11-11T15:05:04.586Z,4.65
2022-11-11T15:07:38.015Z,4.57
2022-11-11T15:10:21.216Z,3.90
2022-11-11T15:13:01.688Z,4.18
2022-11-11T15:15:32.926Z,4.07
2022-11-11T15:18:06.210Z,3.90
2022-11-11T15:20:44.000Z,3.75
2022-11-11T15:23:18.870Z,4.05
2022-11-11T15:25:50.975Z,3.38
2022-11-11T15:28:25.252Z,3.53
2022-11-11T15:30:59.727Z,3.60
2022-11-11T15:33:29.308Z,4.28
2022-11-11T15:36:02.899Z,4.30
2022-11-11T15:38:34.527Z,6.65
2022-11-11T15:41:02.284Z,9.57
2022-11-11T15:43:30.686Z,4.10
2022-11-11T15:45:59.655Z,4.47
2022-11-11T15:48:28.734Z,4.07
2022-11-11T15:50:56.441Z,3.72
2022-11-11T15:53:25.185Z,3.80
2022-11-11T15:55:57.839Z,3.88
2022-11-11T15:58:29.319Z,3.30
2022-11-11T16:00:58.260Z,3.60
2022-11-11T16:03:30.681Z,4.47
2022-11-11T16:05:58.296Z,5.15
2022-11-11T16:08:26.149Z,4.20
2022-11-11T16:10:57.133Z,4.25
2022-11-11T16:13:27.795Z,4.90
2022-11-11T16:15:57.787Z,7.20
2022-11-11T16:18:30.421Z,10.30
2022-11-11T16:21:00.376Z,13.48
2022-11-11T16:23:28.566Z,9.38
2022-11-11T16:25:59.236Z,7.38
2022-11-11T16:28:28.034Z,7.82
2022-11-11T16:30:55.550Z,8.77
2022-11-11T16:33:35.943Z,8.32
2022-11-11T16:36:10.230Z,8.10
2022-11-11T16:38:38.747Z,7.88
2022-11-11T16:41:21.349Z,6.80
2022-11-11T16:43:55.521Z,6.32
2022-11-11T16:46:42.831Z,5.05
2022-11-11T16:49:21.041Z,5.32
2022-11-11T16:51:48.932Z,6.28
2022-11-11T16:54:19.010Z,8.02
2022-11-11T16:56:47.774Z,9.98
2022-11-11T16:59:17.798Z,8.38
2022-11-11T17:01:47.041Z,7.03
2022-11-11T17:04:15.303Z,6.00
2022-11-11T17:06:55.134Z,5.32
2022-11-11T17:09:34.002Z,4.82
2022-11-11T17:12:01.453Z,4.93
2022-11-11T17:14:31.218Z,5.25
2022-11-11T17:16:59.730Z,4.75
2022-11-11T17:19:27.497Z,4.97
2022-11-11T17:21:55.210Z,5.40
2022-11-11T17:24:23.442Z,5.70
2022-11-11T17:26:51.219Z,5.70
2022-11-11T17:29:18.927Z,6.15
2022-11-11T17:31:48.879Z,6.32
2022-11-11T17:34:16.885Z,7.65
2022-11-11T17:36:44.421Z,7.75
2022-11-11T17:39:12.314Z,7.28
2022-11-11T17:41:40.114Z,7.88
2022-11-11T17:44:07.612Z,9.50
2022-11-11T17:46:35.051Z,9.02
2022-11-11T17:49:03.835Z,8.00
2022-11-11T17:51:31.612Z,8.95
2022-11-11T17:54:00.267Z,9.07
2022-11-11T17:56:27.787Z,12.60
2022-11-11T17:58:56.016Z,16.88
2022-11-11T18:01:24.450Z,19.73
2022-11-11T18:03:55.661Z,19.20
2022-11-11T18:06:26.506Z,15.65
2022-11-11T18:08:54.095Z,14.23
2022-11-11T18:11:21.510Z,14.23
2022-11-11T18:13:49.008Z,13.35
2022-11-11T18:16:17.072Z,16.10
2022-11-11T18:18:44.811Z,16.05
2022-11-11T18:21:12.504Z,20.42
2022-11-11T18:23:41.534Z,27.13
2022-11-11T18:26:09.484Z,24.17
2022-11-11T18:28:37.890Z,21.90
2022-11-11T18:31:06.971Z,16.63
2022-11-11T18:33:34.934Z,13.57
2022-11-11T18:36:06.528Z,12.63
2022-11-11T18:38:36.460Z,12.80
2022-11-11T18:41:06.828Z,12.48
2022-11-11T18:43:35.131Z,11.65
2022-11-11T18:46:05.734Z,11.80
2022-11-11T18:48:33.202Z,12.57
2022-11-11T18:51:01.444Z,10.70
2022-11-11T18:53:30.113Z,13.43
2022-11-11T18:56:02.148Z,12.68
2022-11-11T18:58:31.298Z,12.13
2022-11-11T19:01:09.002Z,12.57
2022-11-11T19:03:36.861Z,12.73
2022-11-11T19:06:07.086Z,11.70
2022-11-11T19:08:35.156Z,11.80
2022-11-11T19:11:02.721Z,12.90
2022-11-11T19:13:31.617Z,12.63
2022-11-11T19:16:05.135Z,12.77
2022-11-11T19:18:32.565Z,13.77
2022-11-11T19:20:59.996Z,13.93
2022-11-11T19:23:27.655Z,16.33
2022-11-11T19:25:58.825Z,16.60
2022-11-11T19:28:44.374Z,18.02
2022-11-11T19:31:12.417Z,16.85
2022-11-11T19:33:40.529Z,18.83
2022-11-11T19:36:09.258Z,18.70
2022-11-11T19:38:38.017Z,15.77
2022-11-11T19:41:09.446Z,14.05
2022-11-11T19:43:38.828Z,13.90
2022-11-11T19:46:07.190Z,14.18
2022-11-11T19:48:35.054Z,15.05
2022-11-11T19:51:04.518Z,11.35
2022-11-11T19:53:31.982Z,11.77
2022-11-11T19:56:00.106Z,9.15
2022-11-11T19:58:27.912Z,8.85
2022-11-11T20:00:56.842Z,10.45
2022-11-11T20:03:24.856Z,10.98
2022-11-11T20:05:52.560Z,12.73
2022-11-11T20:08:19.956Z,13.25
2022-11-11T20:10:47.434Z,19.50
2022-11-11T20:13:14.948Z,25.83
2022-11-11T20:15:42.423Z,24.65
2022-11-11T20:18:11.189Z,22.92
2022-11-11T20:20:38.627Z,20.85
2022-11-11T20:23:06.696Z,20.15
2022-11-11T20:25:37.518Z,17.17
2022-11-11T20:28:05.059Z,19.08
2022-11-11T20:30:32.454Z,19.05
2022-11-11T20:32:59.882Z,18.80
2022-11-11T20:35:28.719Z,17.48
2022-11-11T20:37:56.132Z,15.27
2022-11-11T20:40:23.543Z,14.07
2022-11-11T20:42:50.970Z,15.00
2022-11-11T20:45:18.450Z,15.68
2022-11-11T20:47:45.940Z,14.75
2022-11-11T20:50:13.329Z,14.95
2022-11-11T20:52:42.065Z,14.45
2022-11-11T20:55:09.584Z,16.45
2022-11-11T20:57:37.034Z,16.38
2022-11-11T21:00:04.703Z,17.13
2022-11-11T21:02:32.589Z,17.15
2022-11-11T21:05:00.030Z,16.80
2022-11-11T21:07:27.413Z,15.80
2022-11-11T21:09:56.236Z,14.63
2022-11-11T21:12:23.630Z,13.68
2022-11-11T21:14:51.057Z,13.85
2022-11-11T21:17:18.463Z,14.07
2022-11-11T21:19:45.913Z,13.13
2022-11-11T21:22:13.345Z,12.40
2022-11-11T21:24:40.797Z,12.95
2022-11-11T21:27:09.562Z,12.30
2022-11-11T21:29:36.989Z,11.95
2022-11-11T21:32:04.524Z,12.85
2022-11-11T21:34:32.032Z,18.35
2022-11-11T21:36:59.511Z,16.85
2022-11-11T21:39:27.241Z,18.13
2022-11-11T21:41:54.868Z,19.58
2022-11-11T21:44:23.754Z,19.17
2022-11-11T21:46:51.196Z,17.60
2022-11-11T21:49:18.650Z,17.48
2022-11-11T21:51:46.060Z,17.48
2022-11-11T21:54:13.744Z,18.77
2022-11-11T21:56:41.170Z,19.40
2022-11-11T21:59:08.782Z,18.13
2022-11-11T22:01:38.807Z,17.63
2022-11-11T22:04:07.149Z,16.45
2022-11-11T22:06:35.045Z,17.13
2022-11-11T22:09:03.235Z,16.55
2022-11-11T22:11:32.044Z,15.50
2022-11-11T22:14:01.046Z,15.02
2022-11-11T22:16:29.039Z,14.23
2022-11-11T22:18:58.737Z,12.57
2022-11-11T22:21:27.141Z,12.68
2022-11-11T22:23:55.952Z,12.57
2022-11-11T22:26:23.669Z,12.13
2022-11-11T22:28:54.214Z,12.52
2022-11-11T22:31:23.917Z,13.65
2022-11-11T22:33:54.717Z,12.40
2022-11-11T22:36:23.747Z,12.68
2022-11-11T22:38:51.131Z,14.02
2022-11-11T22:41:20.105Z,14.00
2022-11-11T22:44:03.739Z,15.95
2022-11-11T22:46:31.967Z,17.15
2022-11-11T22:49:00.155Z,19.10
2022-11-11T22:51:29.846Z,17.05
2022-11-11T22:53:58.169Z,16.52
2022-11-11T22:56:25.928Z,15.63
2022-11-11T22:58:54.090Z,15.77
2022-11-11T23:01:28.769Z,15.25
2022-11-11T23:03:57.817Z,12.82
2022-11-11T23:06:26.123Z,13.27
2022-11-11T23:08:55.353Z,13.27
2022-11-11T23:11:23.951Z,14.38
2022-11-11T23:13:51.832Z,13.88
2022-11-11T23:16:20.040Z,14.20
2022-11-11T23:18:47.775Z,14.27
2022-11-11T23:21:16.163Z,13.95
2022-11-11T23:23:43.773Z,12.63
2022-11-11T23:26:13.345Z,13.55
2022-11-11T23:31:49.656Z,12.18
2022-11-11T23:34:17.113Z,11.15
2022-11-11T23:36:44.496Z,10.93
2022-11-11T23:39:11.895Z,10.80
2022-11-11T23:41:40.639Z,11.00
2022-11-11T23:44:08.040Z,11.60
2022-11-11T23:46:35.443Z,11.50
2022-11-11T23:49:02.959Z,10.67
2022-11-11T23:51:30.392Z,11.27
2022-11-11T23:53:57.834Z,13.43
2022-11-11T23:56:25.229Z,12.93
2022-11-11T23:58:54.017Z,12.57
